Terminal Aerodrome Forecast
Issued by NWS

Home | Current Version | Previous Version | Text Only | Print | Product List | Glossary On
Versions: 1 2 3 4 5 6 7 8 9 10 11 12
000
FTUS43 KGRB 141700
TAFATW
TAF
KATW 141737Z 1418/1518 23013G23KT P6SM SCT070
     FM142200 23007KT P6SM VCSH SCT030 BKN060
     FM150200 24004KT P6SM SCT040 BKN110
     FM150700 24005KT 5SM -SHRA BKN080
      TEMPO 1509/1513 3SM -SHRA BR BKN045
     FM151700 27006KT P6SM VCSH BKN110=

USA.gov is the U.S. government's official web portal to all federal, state and local government web resources and services.